createdAt,value
2022-11-03T00:02:28.948Z,94271.06
2022-11-03T00:07:32.073Z,94275.75
2022-11-03T00:12:35.232Z,94275.06
2022-11-03T00:17:38.839Z,94261.28
2022-11-03T00:22:42.490Z,94263.91
2022-11-03T00:27:45.940Z,94260.28
2022-11-03T00:32:49.167Z,94257.91
2022-11-03T00:37:52.106Z,94253.91
2022-11-03T00:42:55.093Z,94253.56
2022-11-03T00:48:17.870Z,94260.34
2022-11-03T00:53:21.623Z,94264.75
2022-11-03T00:58:26.020Z,94267.13
2022-11-03T01:03:29.592Z,94261.56
2022-11-03T01:08:37.310Z,94262.28
2022-11-03T01:13:40.461Z,94257.28
2022-11-03T01:18:44.285Z,94253.38
2022-11-03T01:23:48.183Z,94252.94
2022-11-03T01:28:51.736Z,94247.38
2022-11-03T01:33:57.298Z,94236.28
2022-11-03T01:39:00.630Z,94233.50
2022-11-03T01:44:09.676Z,94229.25
2022-11-03T01:49:21.177Z,94227.66
2022-11-03T01:54:27.695Z,94222.09
2022-11-03T01:59:31.669Z,94212.69
2022-11-03T02:04:35.586Z,94211.19
2022-11-03T02:09:39.263Z,94199.88
2022-11-03T02:15:01.201Z,94207.25
2022-11-03T02:20:12.701Z,94206.00
2022-11-03T02:25:36.033Z,94200.91
2022-11-03T02:31:01.902Z,94193.47
2022-11-03T02:36:14.733Z,94196.38
2022-11-03T02:41:19.611Z,94193.72
2022-11-03T02:46:25.466Z,94175.22
2022-11-03T02:51:28.827Z,94192.00
2022-11-03T02:56:35.928Z,94188.06
2022-11-03T03:01:47.631Z,94188.44
2022-11-03T03:06:58.414Z,94191.13
2022-11-03T03:12:03.791Z,94186.81
2022-11-03T03:17:12.439Z,94186.69
2022-11-03T03:22:48.471Z,94184.63
2022-11-03T03:27:58.585Z,94191.56
2022-11-03T03:33:05.319Z,94193.88
2022-11-03T03:38:15.620Z,94180.19
2022-11-03T03:43:22.220Z,94191.84
2022-11-03T03:48:25.840Z,94186.69
2022-11-03T03:53:31.082Z,94185.78
2022-11-03T03:58:34.944Z,94185.00
2022-11-03T04:03:37.896Z,94171.75
2022-11-03T04:08:41.441Z,94171.81
2022-11-03T04:14:03.023Z,94175.69
2022-11-03T04:19:24.933Z,94179.78
2022-11-03T04:24:28.023Z,94185.50
2022-11-03T04:29:31.156Z,94181.56
2022-11-03T04:34:34.596Z,94179.09
2022-11-03T04:39:37.771Z,94180.69
2022-11-03T04:44:41.367Z,94168.91
2022-11-03T04:49:46.339Z,94168.31
2022-11-03T04:54:53.185Z,94170.44
2022-11-03T04:59:56.411Z,94156.66
2022-11-03T05:04:59.789Z,94172.28
2022-11-03T05:10:05.337Z,94180.88
2022-11-03T05:15:32.214Z,94178.06
2022-11-03T05:20:41.451Z,94181.38
2022-11-03T05:25:48.156Z,94187.31
2022-11-03T05:30:52.741Z,94187.91
2022-11-03T05:36:03.480Z,94190.63
2022-11-03T05:41:16.853Z,94196.75
2022-11-03T05:46:21.098Z,94189.97
2022-11-03T05:51:38.640Z,94204.94
2022-11-03T05:56:41.731Z,94195.13
2022-11-03T06:01:44.849Z,94200.53
2022-11-03T06:06:56.240Z,94197.59
2022-11-03T06:12:04.745Z,94195.16
2022-11-03T06:17:12.453Z,94199.28
2022-11-03T06:22:37.418Z,94192.47
2022-11-03T06:27:41.729Z,94191.19
2022-11-03T06:32:45.630Z,94185.44
2022-11-03T06:37:49.227Z,94192.06
2022-11-03T06:42:58.856Z,94205.66
2022-11-03T06:48:11.175Z,94209.75
2022-11-03T06:53:25.038Z,94211.25
2022-11-03T06:58:33.374Z,94207.84
2022-11-03T07:03:38.235Z,94203.94
2022-11-03T07:08:47.677Z,94205.09
2022-11-03T07:14:04.199Z,94206.66
2022-11-03T07:19:20.643Z,94201.75
2022-11-03T07:24:46.716Z,94207.38
2022-11-03T07:29:52.087Z,94204.38
2022-11-03T07:35:24.026Z,94209.06
2022-11-03T07:40:28.756Z,94207.97
2022-11-03T07:45:40.172Z,94209.94
2022-11-03T07:50:44.018Z,94196.44
2022-11-03T07:55:47.946Z,94201.75
2022-11-03T08:00:57.988Z,94202.69
2022-11-03T08:06:03.712Z,94195.75
2022-11-03T08:11:10.571Z,94208.72
2022-11-03T08:16:14.082Z,94209.59
2022-11-03T08:21:17.731Z,94209.84
2022-11-03T08:26:21.480Z,94217.22
2022-11-03T08:31:25.106Z,94213.03
2022-11-03T08:36:28.734Z,94207.97
2022-11-03T08:41:32.704Z,94202.81
2022-11-03T08:46:36.766Z,94205.09
2022-11-03T08:51:44.192Z,94216.00
2022-11-03T08:56:49.176Z,94210.84
2022-11-03T09:01:52.567Z,94197.16
2022-11-03T09:06:56.192Z,94196.44
2022-11-03T09:11:59.269Z,94199.97
2022-11-03T09:22:06.288Z,94197.81
2022-11-03T09:27:09.459Z,94187.63
2022-11-03T09:32:12.488Z,94190.47
2022-11-03T09:37:16.320Z,94181.53
2022-11-03T09:42:21.131Z,94173.56
2022-11-03T09:47:29.626Z,94165.31
2022-11-03T09:52:35.978Z,94170.34
2022-11-03T09:57:39.118Z,94161.16
2022-11-03T10:02:43.608Z,94158.91
2022-11-03T10:07:47.469Z,94164.44
2022-11-03T10:12:53.541Z,94150.94
2022-11-03T10:17:57.661Z,94147.56
2022-11-03T10:23:01.072Z,94145.06
2022-11-03T10:28:22.595Z,94141.06
2022-11-03T10:33:52.193Z,94141.56
2022-11-03T10:38:56.223Z,94119.25
2022-11-03T10:44:17.268Z,94115.06
2022-11-03T10:49:21.446Z,94125.88
2022-11-03T10:54:25.678Z,94112.50
2022-11-03T10:59:34.894Z,94114.19
2022-11-03T11:04:38.676Z,94103.44
2022-11-03T11:09:42.254Z,94095.84
2022-11-03T11:15:30.543Z,94089.94
2022-11-03T11:20:36.763Z,94068.09
2022-11-03T11:26:11.607Z,94071.44
2022-11-03T11:31:27.145Z,94069.69
2022-11-03T11:36:30.243Z,94055.53
2022-11-03T11:42:04.549Z,94045.50
2022-11-03T11:47:43.216Z,94042.75
2022-11-03T11:52:51.755Z,94032.38
2022-11-03T11:57:55.982Z,94030.72
2022-11-03T12:03:01.635Z,94016.84
2022-11-03T12:08:21.418Z,94017.56
2022-11-03T12:13:43.215Z,94009.44
2022-11-03T12:18:50.555Z,94002.06
2022-11-03T12:23:54.266Z,93995.47
2022-11-03T12:28:57.916Z,93988.69
2022-11-03T12:34:01.124Z,93996.34
2022-11-03T12:39:04.118Z,93985.38
2022-11-03T12:44:07.309Z,93976.56
2022-11-03T12:49:10.389Z,93968.38
2022-11-03T12:54:13.381Z,93962.47
2022-11-03T12:59:16.371Z,93965.25
2022-11-03T13:04:19.347Z,93946.47
2022-11-03T13:09:22.370Z,93962.91
2022-11-03T13:14:27.400Z,93964.88
2022-11-03T13:19:30.424Z,93955.13
2022-11-03T13:24:33.589Z,93946.88
2022-11-03T13:29:36.596Z,93951.63
2022-11-03T13:34:39.693Z,93953.03
2022-11-03T13:39:42.763Z,93937.16
2022-11-03T13:44:46.028Z,93948.09
2022-11-03T13:50:13.179Z,93947.25
2022-11-03T14:00:39.243Z,93946.91
2022-11-03T14:05:42.214Z,93947.84
2022-11-03T14:10:45.242Z,93953.50
2022-11-03T14:15:48.269Z,93946.84
2022-11-03T14:20:51.175Z,93955.72
2022-11-03T14:26:06.216Z,93951.72
2022-11-03T14:31:17.143Z,93954.53
2022-11-03T14:36:20.116Z,93953.66
2022-11-03T14:41:41.775Z,93953.63
2022-11-03T14:46:45.022Z,93948.19
2022-11-03T14:51:47.998Z,93944.81
2022-11-03T14:56:51.087Z,93960.50
2022-11-03T15:01:55.161Z,93960.81
2022-11-03T15:06:58.395Z,93957.38
2022-11-03T15:12:03.742Z,93950.72
2022-11-03T15:17:06.627Z,93959.06
2022-11-03T15:22:09.714Z,93958.53
2022-11-03T15:27:12.769Z,93952.13
2022-11-03T15:32:15.642Z,93955.16
2022-11-03T15:37:18.597Z,93953.97
2022-11-03T15:42:21.660Z,93959.59
2022-11-03T15:47:25.301Z,93960.59
2022-11-03T15:52:28.828Z,93946.47
2022-11-03T15:57:32.368Z,93949.44
2022-11-03T16:02:41.511Z,93958.59
2022-11-03T16:07:45.361Z,93953.09
2022-11-03T16:12:48.755Z,93954.41
2022-11-03T16:17:51.805Z,93959.38
2022-11-03T16:22:54.967Z,93956.78
2022-11-03T16:27:58.214Z,93951.81
2022-11-03T16:33:01.823Z,93955.03
2022-11-03T16:38:06.930Z,93959.66
2022-11-03T16:43:11.211Z,93955.59
2022-11-03T16:48:15.290Z,93957.59
2022-11-03T16:53:18.520Z,93947.59
2022-11-03T16:58:23.326Z,93952.47
2022-11-03T17:03:27.234Z,93958.75
2022-11-03T17:08:58.901Z,93951.50
2022-11-03T17:13:53.624Z,93955.13
2022-11-03T17:18:58.809Z,93946.97
2022-11-03T17:24:02.122Z,93953.06
2022-11-03T17:29:05.335Z,93946.56
2022-11-03T17:34:15.290Z,93952.09
2022-11-03T17:44:30.035Z,93955.84
2022-11-03T17:49:33.898Z,93955.09
2022-11-03T17:54:39.187Z,93954.34
2022-11-03T17:59:48.854Z,93954.47
2022-11-03T18:04:58.320Z,93959.75
2022-11-03T18:10:02.529Z,93949.53
2022-11-03T18:15:12.683Z,93959.81
2022-11-03T18:20:27.614Z,93951.09
2022-11-03T18:25:33.281Z,93958.66
2022-11-03T18:30:39.489Z,93953.66
2022-11-03T18:35:42.930Z,93958.00
2022-11-03T18:40:46.980Z,93960.88
2022-11-03T18:45:54.385Z,93964.88
2022-11-03T18:51:00.092Z,93964.41
2022-11-03T18:56:04.021Z,93969.16
2022-11-03T19:01:07.975Z,93968.88
2022-11-03T19:06:11.793Z,93960.25
2022-11-03T19:11:15.970Z,93964.59
2022-11-03T19:16:24.703Z,93960.28
2022-11-03T19:21:28.977Z,93955.91
2022-11-03T19:26:40.966Z,93961.34
2022-11-03T19:31:49.229Z,93966.03
2022-11-03T19:36:54.664Z,93963.97
2022-11-03T19:42:27.951Z,93962.69
2022-11-03T19:47:39.785Z,93955.94
2022-11-03T19:52:45.809Z,93965.31
2022-11-03T19:57:49.640Z,93955.88
2022-11-03T20:02:53.577Z,93960.91
2022-11-03T20:08:02.153Z,93962.44
2022-11-03T20:13:08.730Z,93954.59
2022-11-03T20:18:14.093Z,93956.53
2022-11-03T20:23:24.888Z,93945.63
2022-11-03T20:28:31.398Z,93952.31
2022-11-03T20:33:36.408Z,93946.81
2022-11-03T20:38:40.451Z,93950.56
2022-11-03T20:43:47.910Z,93942.22
2022-11-03T20:48:51.886Z,93935.44
2022-11-03T20:53:56.209Z,93944.38
2022-11-03T20:59:00.155Z,93940.78
2022-11-03T21:04:05.188Z,93937.59
2022-11-03T21:09:18.437Z,93935.19
2022-11-03T21:14:28.044Z,93940.56
2022-11-03T21:19:52.926Z,93933.84
2022-11-03T21:24:57.266Z,93927.53
2022-11-03T21:30:01.086Z,93934.09
2022-11-03T21:35:06.918Z,93933.63
2022-11-03T21:40:11.432Z,93926.66
2022-11-03T21:45:15.121Z,93922.44
2022-11-03T21:50:18.744Z,93922.84
2022-11-03T21:55:22.030Z,93914.69
2022-11-03T22:00:25.578Z,93907.94
2022-11-03T22:05:29.889Z,93903.25
2022-11-03T22:10:33.918Z,93905.97
2022-11-03T22:15:56.024Z,93907.88
2022-11-03T22:21:17.984Z,93910.91
2022-11-03T22:26:40.228Z,93909.31
2022-11-03T22:31:43.688Z,93901.88
2022-11-03T22:36:46.765Z,93904.16
2022-11-03T22:42:08.429Z,93894.72
2022-11-03T22:47:14.472Z,93892.69
2022-11-03T22:52:21.537Z,93894.59
2022-11-03T22:57:26.693Z,93875.47
2022-11-03T23:02:30.685Z,93875.84
2022-11-03T23:07:41.091Z,93876.94
2022-11-03T23:12:44.313Z,93866.34
2022-11-03T23:18:06.280Z,93878.78
2022-11-03T23:23:33.824Z,93862.75
2022-11-03T23:28:38.273Z,93864.53
2022-11-03T23:33:42.904Z,93866.44
2022-11-03T23:38:46.847Z,93856.50
2022-11-03T23:43:50.972Z,93856.97
2022-11-03T23:48:55.638Z,93854.97
2022-11-03T23:54:01.355Z,93846.28
2022-11-03T23:59:07.679Z,93841.25
